Time;durP1;ratioP1;P1;durP2;ratioP2;P2;SDS_P1;SDS_P2;PMS_P1;PMS_P2;Temp;Humidity;BMP_temperature;BMP_pressure;BME280_temperature;BME280_humidity;BME280_pressure;Samples;Min_cycle;Max_cycle;Signal;HPM_P1;HPM_P2
2022/01/29 00:01:54;;;;;;;4.00;2.80;;;1.70;99.90;1.40;101756.00;;;;5010692;27;121976;-71
2022/01/29 00:04:20;;;;;;;12.07;2.40;;;1.70;99.90;1.40;101753.00;;;;5009285;27;110708;-71
2022/01/29 00:06:46;;;;;;;2.77;1.87;;;1.60;99.90;1.40;101757.00;;;;5011639;27;108362;-70
2022/01/29 00:09:14;;;;;;;3.10;2.30;;;1.60;99.90;1.30;101757.00;;;;5010753;27;123125;-69
2022/01/29 00:11:44;;;;;;;8.07;2.30;;;1.60;99.90;1.40;101779.00;;;;5011936;27;92134;-68
2022/01/29 00:14:11;;;;;;;4.50;2.73;;;1.60;99.90;1.30;101768.00;;;;4992994;27;93158;-70
2022/01/29 00:16:37;;;;;;;10.17;1.80;;;1.50;99.90;1.30;101765.00;;;;5011378;27;93636;-69
2022/01/29 00:19:03;;;;;;;11.43;3.23;;;1.60;99.90;1.30;101756.00;;;;4973023;28;95903;-71
2022/01/29 00:21:29;;;;;;;5.93;2.37;;;1.60;99.90;1.30;101747.00;;;;4972419;28;94289;-70
2022/01/29 00:23:55;;;;;;;10.63;2.80;;;1.50;99.90;1.30;101750.00;;;;4985301;28;110635;-70
2022/01/29 00:26:23;;;;;;;10.40;2.50;;;1.50;99.90;1.30;101743.00;;;;4990342;27;109024;-70
2022/01/29 00:28:51;;;;;;;10.87;2.57;;;1.60;99.90;1.30;101750.00;;;;4990925;28;94113;-69
2022/01/29 00:31:17;;;;;;;3.60;2.80;;;1.60;99.90;1.30;101741.00;;;;4997742;27;93893;-69
2022/01/29 00:33:43;;;;;;;11.60;3.10;;;1.50;99.90;1.30;101731.00;;;;4991424;28;93030;-69
2022/01/29 00:36:09;;;;;;;3.47;2.33;;;1.60;99.90;1.30;101727.00;;;;5005068;27;91987;-70
2022/01/29 00:38:35;;;;;;;6.93;2.97;;;1.60;99.90;1.30;101735.00;;;;5010337;27;122851;-70
2022/01/29 00:41:04;;;;;;;6.63;2.37;;;1.60;99.90;1.40;101728.00;;;;5009460;27;123416;-70
2022/01/29 00:43:30;;;;;;;3.77;2.40;;;1.70;99.90;1.40;101724.00;;;;4997531;27;93919;-70
2022/01/29 00:45:56;;;;;;;9.80;2.37;;;2.00;99.90;1.40;101711.00;;;;4991514;27;92783;-71
2022/01/29 00:48:21;;;;;;;8.10;2.63;;;1.70;99.90;1.50;101716.00;;;;4990311;27;122664;-72
2022/01/29 00:50:47;;;;;;;7.43;2.77;;;2.50;99.90;1.50;101704.00;;;;4993454;27;122059;-70
2022/01/29 00:53:13;;;;;;;7.83;2.57;;;1.70;99.90;1.50;101703.00;;;;5008088;27;92705;-71
2022/01/29 00:55:41;;;;;;;11.20;2.20;;;1.80;99.90;1.60;101704.00;;;;5013727;27;107883;-69
2022/01/29 00:58:08;;;;;;;5.87;2.53;;;1.60;99.90;1.60;101698.00;;;;5014531;27;92843;-71
2022/01/29 01:00:34;;;;;;;7.73;2.20;;;1.80;99.90;1.70;101693.00;;;;5013399;27;107327;-70
2022/01/29 01:02:59;;;;;;;4.33;1.73;;;1.90;99.90;1.70;101695.00;;;;5014473;27;95014;-70
2022/01/29 01:05:25;;;;;;;3.00;1.67;;;2.10;99.90;1.70;101686.00;;;;5012726;27;92957;-70
2022/01/29 01:07:51;;;;;;;13.07;3.07;;;1.90;99.90;1.70;101677.00;;;;4999950;27;123761;-69
2022/01/29 01:10:16;;;;;;;4.93;2.30;;;2.10;99.90;1.80;101686.00;;;;4993033;27;124837;-68
2022/01/29 01:12:42;;;;;;;2.17;1.47;;;2.00;99.90;1.80;101696.00;;;;4993587;28;103074;-69
2022/01/29 01:15:09;;;;;;;4.47;2.03;;;2.10;99.90;1.80;101691.00;;;;4993811;27;93535;-69
2022/01/29 01:17:35;;;;;;;5.90;2.43;;;2.10;99.90;1.90;101694.00;;;;4993516;28;93864;-71
2022/01/29 01:20:03;;;;;;;5.90;2.17;;;2.10;99.90;1.90;101696.00;;;;5012109;27;94338;-70
2022/01/29 01:22:29;;;;;;;6.60;2.57;;;2.10;99.90;1.90;101696.00;;;;5014116;27;93324;-70
2022/01/29 01:24:54;;;;;;;4.13;2.33;;;2.10;99.90;1.90;101680.00;;;;5013746;27;108805;-69
2022/01/29 01:27:20;;;;;;;2.97;1.73;;;2.20;99.90;1.90;101680.00;;;;5013174;27;122499;-70
2022/01/29 01:29:46;;;;;;;5.70;3.20;;;2.10;99.90;2.00;101678.00;;;;5011905;27;93395;-69
2022/01/29 01:32:12;;;;;;;9.37;2.50;;;2.20;99.90;2.00;101682.00;;;;5014105;27;93923;-70
2022/01/29 01:34:44;;;;;;;11.27;2.07;;;2.20;99.90;2.00;101683.00;;;;5003162;27;93195;-69
2022/01/29 01:37:15;;;;;;;4.17;1.90;;;2.30;99.90;2.00;101687.00;;;;4989074;28;93145;-69
2022/01/29 01:39:42;;;;;;;8.87;2.17;;;2.20;99.90;2.00;101667.00;;;;4993899;27;93911;-70
2022/01/29 01:42:08;;;;;;;3.53;1.77;;;2.20;99.90;2.10;101666.00;;;;4994057;28;92951;-70
2022/01/29 01:44:45;;;;;;;6.50;2.57;;;2.30;99.90;2.10;101663.00;;;;5005319;27;92691;-70
2022/01/29 01:47:13;;;;;;;3.60;2.03;;;2.30;99.90;2.20;101662.00;;;;4991291;28;92939;-70
2022/01/29 01:49:39;;;;;;;5.07;1.87;;;2.50;99.90;2.20;101640.00;;;;4993876;27;108073;-71
2022/01/29 01:52:10;;;;;;;4.20;2.20;;;2.50;99.90;2.30;101644.00;;;;4993927;28;92775;-72
2022/01/29 01:54:38;;;;;;;3.83;1.43;;;2.50;99.90;2.30;101631.00;;;;4993633;27;92737;-69
2022/01/29 01:57:04;;;;;;;3.97;1.67;;;2.50;99.90;2.30;101615.00;;;;4974427;28;94260;-70
2022/01/29 01:59:31;;;;;;;5.37;1.83;;;2.60;99.90;2.40;101605.00;;;;4974678;27;93241;-70
2022/01/29 02:01:56;;;;;;;4.83;2.20;;;2.60;99.90;2.40;101602.00;;;;4992716;28;93238;-69
2022/01/29 02:04:22;;;;;;;6.83;2.13;;;2.60;99.90;2.40;101584.00;;;;4974810;27;92917;-72
2022/01/29 02:06:51;;;;;;;10.33;2.53;;;2.60;99.90;2.40;101587.00;;;;4992290;27;120185;-70
2022/01/29 02:09:20;;;;;;;6.03;2.03;;;2.70;99.90;2.40;101573.00;;;;4992647;27;94285;-69
2022/01/29 02:11:55;;;;;;;6.00;2.57;;;2.60;99.90;2.50;101564.00;;;;4992954;28;92822;-71
2022/01/29 02:14:24;;;;;;;8.97;1.97;;;2.70;99.90;2.50;101555.00;;;;4974511;27;92010;-70
2022/01/29 02:16:50;;;;;;;5.03;1.97;;;2.80;99.90;2.50;101546.00;;;;5012524;27;93393;-69
2022/01/29 02:19:16;;;;;;;8.77;2.63;;;2.70;99.90;2.50;101557.00;;;;5013042;27;92780;-69
2022/01/29 02:21:42;;;;;;;7.50;3.17;;;2.80;99.90;2.50;101559.00;;;;4992021;27;109977;-70
2022/01/29 02:24:08;;;;;;;10.40;2.00;;;2.70;99.90;2.60;101541.00;;;;4993817;27;92903;-69
2022/01/29 02:26:33;;;;;;;7.97;2.33;;;2.80;99.90;2.60;101536.00;;;;4993095;27;93075;-70
2022/01/29 02:28:59;;;;;;;4.07;1.87;;;2.40;99.90;2.60;101538.00;;;;4992440;28;98257;-70
2022/01/29 02:31:25;;;;;;;9.30;2.40;;;2.80;99.90;2.60;101525.00;;;;4991583;27;112029;-71
2022/01/29 02:33:51;;;;;;;8.37;2.00;;;2.80;99.90;2.60;101527.00;;;;4992742;28;92758;-70
2022/01/29 02:36:16;;;;;;;8.07;2.40;;;2.80;99.90;2.60;101517.00;;;;4992273;27;123231;-70
2022/01/29 02:38:42;;;;;;;3.50;1.83;;;2.80;99.90;2.60;101526.00;;;;4994509;27;92848;-71
2022/01/29 02:41:08;;;;;;;3.70;2.10;;;2.80;99.90;2.60;101517.00;;;;5002693;27;110600;-70
2022/01/29 02:43:46;;;;;;;3.27;1.60;;;2.80;99.90;2.60;101517.00;;;;5000991;27;105286;-71
2022/01/29 02:48:52;;;;;;;7.77;2.03;;;2.80;99.90;2.70;101504.00;;;;5011316;27;93994;-71
2022/01/29 02:51:20;;;;;;;4.47;1.70;;;2.40;99.90;2.70;101511.00;;;;4993922;27;92805;-70
2022/01/29 02:53:46;;;;;;;6.30;2.30;;;2.90;99.90;2.70;101491.00;;;;5012695;27;94447;-70
2022/01/29 02:56:12;;;;;;;2.87;1.90;;;2.90;99.90;2.70;101494.00;;;;4993537;27;93556;-70
2022/01/29 02:58:38;;;;;;;6.63;1.60;;;2.90;99.90;2.70;101485.00;;;;4993954;27;92998;-69
2022/01/29 03:01:07;;;;;;;4.20;1.87;;;2.90;99.90;2.70;101478.00;;;;5012039;27;92803;-71
2022/01/29 03:03:33;;;;;;;9.03;2.30;;;3.00;99.90;2.70;101494.00;;;;5013514;27;92430;-70
2022/01/29 03:06:01;;;;;;;13.13;2.70;;;2.90;99.90;2.70;101480.00;;;;5011971;27;107422;-71
2022/01/29 03:08:27;;;;;;;9.83;2.07;;;2.90;99.90;2.70;101476.00;;;;5012210;27;94116;-71
2022/01/29 03:10:52;;;;;;;3.43;2.10;;;2.90;99.90;2.80;101473.00;;;;5010799;27;109504;-71
2022/01/29 03:13:18;;;;;;;18.23;2.40;;;3.00;99.90;2.80;101471.00;;;;4990412;27;108174;-70
2022/01/29 03:15:44;;;;;;;6.80;1.80;;;3.00;99.90;2.80;101475.00;;;;4990678;27;123438;-71
2022/01/29 03:18:09;;;;;;;7.60;2.60;;;3.00;99.90;2.80;101467.00;;;;4977304;27;96580;-70
2022/01/29 03:20:35;;;;;;;8.17;2.07;;;3.10;99.90;2.90;101470.00;;;;4975849;28;109976;-71
2022/01/29 03:23:01;;;;;;;6.40;1.67;;;3.10;99.90;2.90;101474.00;;;;4991152;28;109009;-70
2022/01/29 03:25:26;;;;;;;3.03;1.53;;;3.10;99.90;2.90;101458.00;;;;5000491;27;122611;-70
2022/01/29 03:27:53;;;;;;;10.23;2.13;;;3.10;99.90;2.90;101455.00;;;;4992894;27;121331;-70
2022/01/29 03:30:18;;;;;;;1.63;1.50;;;3.20;99.90;3.00;101448.00;;;;5003349;27;92730;-70
2022/01/29 03:32:44;;;;;;;2.17;1.67;;;3.20;99.90;3.00;101442.00;;;;4991608;27;99486;-71
2022/01/29 03:35:11;;;;;;;14.13;2.17;;;3.20;99.90;3.00;101449.00;;;;4992059;27;94522;-70
2022/01/29 03:37:37;;;;;;;5.80;2.27;;;3.20;99.90;3.10;101447.00;;;;4996166;27;95196;-70
2022/01/29 03:40:06;;;;;;;6.17;2.30;;;3.20;99.90;3.10;101436.00;;;;4998509;27;94639;-70
2022/01/29 03:42:38;;;;;;;3.13;2.00;;;3.30;99.90;3.10;101432.00;;;;5012379;27;93076;-70
2022/01/29 03:45:07;;;;;;;5.60;2.00;;;3.30;99.90;3.10;101429.00;;;;5005652;27;92999;-70
2022/01/29 03:47:32;;;;;;;3.00;1.93;;;3.40;99.90;3.10;101419.00;;;;4991949;28;93174;-71
2022/01/29 03:49:58;;;;;;;12.40;2.40;;;3.30;99.90;3.00;101420.00;;;;4991518;28;93017;-70
2022/01/29 03:52:24;;;;;;;11.80;2.13;;;3.20;99.90;3.00;101410.00;;;;4991854;28;109246;-70
2022/01/29 03:54:50;;;;;;;4.10;1.73;;;3.20;99.90;2.90;101407.00;;;;4994172;27;122511;-71
2022/01/29 03:57:15;;;;;;;11.63;2.47;;;3.30;99.90;2.90;101398.00;;;;5010814;27;122512;-70
2022/01/29 03:59:42;;;;;;;6.23;2.20;;;3.10;99.90;2.90;101405.00;;;;5011332;27;94121;-71
2022/01/29 04:02:08;;;;;;;2.57;1.70;;;3.10;99.90;2.90;101405.00;;;;4994593;27;92886;-72
2022/01/29 04:04:33;;;;;;;7.17;2.27;;;3.10;99.90;2.90;101391.00;;;;4990606;27;122448;-70
2022/01/29 04:07:05;;;;;;;10.50;2.30;;;3.10;99.90;2.90;101387.00;;;;4990290;27;124677;-71
2022/01/29 04:09:31;;;;;;;2.17;1.53;;;3.10;99.90;2.90;101393.00;;;;4974319;28;93280;-70
2022/01/29 04:11:56;;;;;;;11.33;2.27;;;3.10;99.90;2.90;101379.00;;;;4990592;28;109323;-71
2022/01/29 04:14:22;;;;;;;7.03;2.47;;;3.10;99.90;2.90;101369.00;;;;4989975;27;123616;-71
2022/01/29 04:16:48;;;;;;;5.10;1.80;;;3.10;99.90;2.90;101366.00;;;;4991494;28;92202;-70
2022/01/29 04:19:14;;;;;;;8.83;2.50;;;3.20;99.90;2.90;101359.00;;;;4990931;28;96308;-71
2022/01/29 04:21:41;;;;;;;5.80;2.33;;;3.10;99.90;2.90;101349.00;;;;4990666;27;108383;-71
2022/01/29 04:24:07;;;;;;;6.53;1.70;;;3.10;99.90;2.90;101346.00;;;;4991962;27;94634;-70
2022/01/29 04:26:35;;;;;;;5.87;2.43;;;3.10;99.90;2.90;101348.00;;;;4991452;28;93860;-71
2022/01/29 04:29:08;;;;;;;5.67;2.37;;;3.10;99.90;2.90;101331.00;;;;4994660;28;92832;-73
2022/01/29 04:31:44;;;;;;;6.27;1.97;;;3.20;99.90;2.80;101328.00;;;;4994708;28;93025;-71
2022/01/29 04:34:11;;;;;;;10.53;2.63;;;3.10;99.90;2.90;101332.00;;;;4994358;28;92914;-72
2022/01/29 04:36:36;;;;;;;6.17;1.97;;;3.10;99.90;2.90;101315.00;;;;4992089;27;94047;-71
2022/01/29 04:39:03;;;;;;;3.07;1.53;;;3.10;99.90;2.90;101313.00;;;;5013635;27;110215;-72
2022/01/29 04:41:28;;;;;;;3.33;1.60;;;3.10;99.90;2.90;101306.00;;;;5015153;27;92337;-71
2022/01/29 04:43:54;;;;;;;5.10;1.63;;;3.20;99.90;3.00;101295.00;;;;4994942;27;115280;-70
2022/01/29 04:46:20;;;;;;;3.27;2.07;;;3.60;99.90;3.00;101297.00;;;;5014578;27;101034;-70
2022/01/29 04:48:45;;;;;;;2.27;1.63;;;3.20;99.90;3.00;101291.00;;;;4995724;27;93777;-71
2022/01/29 04:51:11;;;;;;;2.93;1.97;;;3.30;99.90;3.10;101286.00;;;;5002263;27;107783;-71
2022/01/29 04:53:40;;;;;;;5.77;2.57;;;3.30;99.90;3.10;101285.00;;;;4993373;28;121791;-70
2022/01/29 04:56:07;;;;;;;3.27;2.17;;;3.20;99.90;3.20;101285.00;;;;4995437;27;95123;-71
2022/01/29 04:58:33;;;;;;;3.57;1.60;;;3.40;99.90;3.20;101285.00;;;;4992517;28;93041;-70
2022/01/29 05:00:59;;;;;;;6.30;1.97;;;3.40;99.90;3.20;101266.00;;;;4978727;28;93052;-71
2022/01/29 05:03:25;;;;;;;5.33;2.47;;;3.40;99.90;3.30;101268.00;;;;4992600;28;93780;-71
2022/01/29 05:05:50;;;;;;;3.27;1.90;;;3.40;99.90;3.30;101262.00;;;;4967186;28;122781;-72
2022/01/29 05:08:17;;;;;;;8.53;2.43;;;3.50;99.90;3.40;101263.00;;;;4991143;28;109604;-70
2022/01/29 05:10:43;;;;;;;5.53;2.60;;;3.60;99.90;3.40;101260.00;;;;4982931;28;92883;-70
2022/01/29 05:13:12;;;;;;;7.33;2.67;;;3.60;99.90;3.50;101247.00;;;;4993292;28;105907;-71
2022/01/29 05:15:47;;;;;;;9.17;2.43;;;3.70;99.90;3.50;101241.00;;;;4982936;28;93033;-69
2022/01/29 05:29:12;;;;;;;6.00;1.80;;;3.80;99.90;3.80;101226.00;;;;4993261;28;92813;-70
2022/01/29 05:31:38;;;;;;;5.87;2.60;;;4.00;99.90;3.80;101215.00;;;;5011632;27;92252;-69
2022/01/29 05:34:04;;;;;;;5.40;1.87;;;4.50;99.90;3.90;101218.00;;;;5014113;27;106083;-70
2022/01/29 05:36:31;;;;;;;6.83;2.30;;;4.00;99.90;3.90;101221.00;;;;5003260;27;107289;-71
2022/01/29 05:38:57;;;;;;;7.53;1.90;;;4.00;99.90;3.90;101215.00;;;;4993025;27;95844;-71
2022/01/29 05:41:23;;;;;;;7.90;2.30;;;4.10;99.90;3.90;101219.00;;;;4994285;27;92604;-68
2022/01/29 05:43:49;;;;;;;6.47;2.30;;;4.10;99.90;3.90;101211.00;;;;4994847;27;93369;-71
2022/01/29 05:46:16;;;;;;;5.10;2.03;;;4.10;99.90;4.00;101210.00;;;;4992720;27;122097;-70
2022/01/29 05:48:43;;;;;;;9.33;2.63;;;4.20;99.90;4.00;101214.00;;;;4993860;28;93009;-70
2022/01/29 05:51:10;;;;;;;4.13;2.23;;;4.10;99.90;4.00;101206.00;;;;4990107;27;92793;-69
2022/01/29 05:53:35;;;;;;;3.07;2.43;;;4.20;99.90;4.00;101202.00;;;;5011641;27;101124;-72
2022/01/29 05:56:01;;;;;;;5.43;2.27;;;4.20;99.90;4.00;101198.00;;;;5012899;27;122615;-69
2022/01/29 05:58:27;;;;;;;7.57;3.23;;;4.10;99.90;4.00;101186.00;;;;5012895;27;92838;-70
2022/01/29 06:00:53;;;;;;;3.17;2.67;;;4.20;99.90;3.90;101184.00;;;;5012271;27;104674;-71
2022/01/29 06:03:19;;;;;;;3.83;2.73;;;4.10;99.90;3.80;101183.00;;;;4991123;27;123341;-70
2022/01/29 06:05:45;;;;;;;3.40;2.90;;;4.10;99.90;3.70;101173.00;;;;5011865;27;125469;-70
2022/01/29 06:08:11;;;;;;;6.43;2.50;;;4.00;99.90;3.60;101172.00;;;;5011615;27;110698;-69
2022/01/29 06:10:37;;;;;;;5.10;2.93;;;3.80;99.90;3.60;101153.00;;;;5012401;27;101193;-69
2022/01/29 06:13:09;;;;;;;4.93;3.27;;;3.90;99.90;3.60;101165.00;;;;5005859;27;123243;-70
2022/01/29 06:15:42;;;;;;;7.23;2.97;;;2.30;99.90;3.50;101147.00;;;;5002551;27;93396;-70
2022/01/29 06:18:15;;;;;;;7.77;3.60;;;3.80;99.90;3.50;101140.00;;;;4995564;27;93074;-69
2022/01/29 06:20:53;;;;;;;7.43;4.10;;;3.70;99.90;3.50;101132.00;;;;5013843;27;92204;-70
2022/01/29 06:23:29;;;;;;;7.77;4.10;;;3.80;99.90;3.50;101137.00;;;;5013301;27;93457;-71
2022/01/29 06:25:57;;;;;;;11.27;3.67;;;3.70;99.90;3.50;101117.00;;;;4995089;27;93016;-71
2022/01/29 06:28:23;;;;;;;6.60;3.33;;;3.70;99.90;3.50;101121.00;;;;5012826;27;93892;-69
2022/01/29 06:30:48;;;;;;;7.57;2.83;;;3.70;99.90;3.50;101111.00;;;;5009284;27;93028;-70
2022/01/29 06:33:14;;;;;;;4.80;3.43;;;3.70;99.90;3.50;101111.00;;;;5012316;27;97397;-71
2022/01/29 06:35:42;;;;;;;5.40;3.50;;;3.70;99.90;3.60;101120.00;;;;5011749;27;93020;-70
2022/01/29 06:38:10;;;;;;;4.67;3.60;;;3.80;99.90;3.60;101107.00;;;;4992699;27;97092;-70
2022/01/29 06:40:36;;;;;;;7.63;3.67;;;3.80;99.90;3.60;101112.00;;;;4992852;27;93038;-70
2022/01/29 06:43:04;;;;;;;5.27;3.87;;;3.70;99.90;3.60;101105.00;;;;4992229;28;94076;-71
2022/01/29 06:45:32;;;;;;;9.77;4.83;;;3.80;99.90;3.60;101092.00;;;;4967231;27;94693;-70
2022/01/29 06:47:58;;;;;;;6.57;3.30;;;3.80;99.90;3.60;101091.00;;;;5012217;27;95361;-71
2022/01/29 06:50:25;;;;;;;5.67;3.40;;;3.80;99.90;3.60;101095.00;;;;5011973;27;109033;-70
2022/01/29 06:52:51;;;;;;;8.30;4.03;;;3.80;99.90;3.60;101094.00;;;;5011289;27;106342;-70
2022/01/29 06:55:17;;;;;;;7.40;3.93;;;3.80;99.90;3.60;101075.00;;;;5010333;27;104774;-69
2022/01/29 06:57:42;;;;;;;5.57;3.60;;;3.80;99.90;3.60;101085.00;;;;5011264;27;92903;-70
2022/01/29 07:00:09;;;;;;;10.23;3.43;;;3.80;99.90;3.70;101083.00;;;;5009905;27;109112;-70
2022/01/29 07:02:36;;;;;;;7.27;3.73;;;3.80;99.90;3.70;101070.00;;;;5011913;27;102162;-70
2022/01/29 07:05:07;;;;;;;8.97;4.37;;;3.80;99.90;3.70;101060.00;;;;5012056;27;103277;-70
2022/01/29 07:07:32;;;;;;;6.50;4.70;;;3.80;99.90;3.70;101073.00;;;;5007173;27;93392;-69
2022/01/29 07:09:58;;;;;;;5.37;4.43;;;3.90;99.90;3.70;101061.00;;;;5012192;27;108763;-69
2022/01/29 07:12:25;;;;;;;6.47;4.10;;;3.90;99.90;3.70;101059.00;;;;5012657;27;92905;-69
2022/01/29 07:14:51;;;;;;;7.77;3.87;;;3.80;99.90;3.70;101070.00;;;;5011848;27;92840;-69
2022/01/29 07:17:18;;;;;;;12.70;4.60;;;3.80;99.90;3.70;101068.00;;;;5006269;27;110152;-68
2022/01/29 07:19:45;;;;;;;9.20;4.67;;;3.90;99.90;3.70;101067.00;;;;4992731;27;92862;-69
2022/01/29 07:22:11;;;;;;;5.50;3.73;;;3.90;99.90;3.70;101071.00;;;;4990597;28;122220;-70
2022/01/29 07:24:38;;;;;;;8.43;4.50;;;3.90;99.90;3.70;101063.00;;;;4992800;27;106440;-74
2022/01/29 07:27:04;;;;;;;6.30;4.90;;;3.90;99.90;3.70;101053.00;;;;5011770;27;92859;-73
2022/01/29 07:29:30;;;;;;;5.17;4.03;;;3.80;99.90;3.70;101061.00;;;;4988867;27;93345;-80
2022/01/29 07:31:56;;;;;;;7.00;4.20;;;3.80;99.90;3.70;101051.00;;;;4985810;28;93652;-80
2022/01/29 07:34:24;;;;;;;5.97;4.67;;;3.90;99.90;3.70;101050.00;;;;4991326;27;93167;-78
2022/01/29 07:36:52;;;;;;;11.43;4.77;;;3.90;99.90;3.70;101046.00;;;;4998181;27;93081;-79
2022/01/29 07:39:18;;;;;;;6.97;4.90;;;2.30;99.90;3.70;101032.00;;;;5009098;27;93004;-80
2022/01/29 07:41:44;;;;;;;6.93;4.60;;;4.00;99.90;3.70;101029.00;;;;4975517;27;96802;-84
2022/01/29 07:44:10;;;;;;;10.60;5.07;;;3.90;99.90;3.70;101024.00;;;;4975536;27;105429;-79
2022/01/29 07:46:36;;;;;;;7.83;5.20;;;3.90;99.90;3.70;101019.00;;;;4972770;28;110129;-80
2022/01/29 07:49:02;;;;;;;5.90;4.73;;;3.90;99.90;3.70;101017.00;;;;4991671;27;108392;-76
2022/01/29 07:51:28;;;;;;;6.37;4.53;;;3.90;99.90;3.70;101016.00;;;;4990314;27;106203;-77
2022/01/29 07:53:53;;;;;;;6.57;4.60;;;3.90;99.90;3.70;101011.00;;;;4990684;27;107298;-76
2022/01/29 07:56:22;;;;;;;10.03;5.80;;;3.90;99.90;3.70;101020.00;;;;4971966;28;110983;-75
2022/01/29 07:58:49;;;;;;;7.93;5.03;;;3.90;99.90;3.60;101020.00;;;;4990547;28;92038;-76
2022/01/29 08:01:15;;;;;;;7.87;5.13;;;3.90;99.90;3.60;101012.00;;;;5005225;27;93500;-76
2022/01/29 08:03:41;;;;;;;5.23;4.47;;;3.80;99.90;3.60;101018.00;;;;4991335;27;93007;-74
2022/01/29 08:06:08;;;;;;;6.87;5.10;;;3.80;99.90;3.60;100997.00;;;;5007098;27;94267;-75
2022/01/29 08:08:34;;;;;;;7.23;4.83;;;3.80;99.90;3.60;100993.00;;;;4988957;27;92894;-74
2022/01/29 08:11:00;;;;;;;11.83;5.10;;;3.90;99.90;3.60;100989.00;;;;5005985;27;93891;-76
2022/01/29 08:13:26;;;;;;;7.57;4.93;;;3.10;99.90;3.60;100985.00;;;;5005662;27;122684;-77
2022/01/29 08:15:51;;;;;;;10.00;4.83;;;3.90;99.90;3.60;100985.00;;;;4982555;27;92901;-77
2022/01/29 08:18:17;;;;;;;7.20;4.17;;;4.40;99.90;3.60;100980.00;;;;4970811;27;107789;-76
2022/01/29 08:20:43;;;;;;;8.47;4.77;;;3.80;99.90;3.60;100973.00;;;;4983471;27;104994;-77
2022/01/29 08:23:10;;;;;;;7.80;5.27;;;3.90;99.90;3.70;100978.00;;;;4987748;27;122203;-74
2022/01/29 08:25:37;;;;;;;9.03;4.77;;;3.80;99.90;3.70;100961.00;;;;5006879;27;93266;-75
2022/01/29 08:28:04;;;;;;;8.30;4.70;;;3.70;99.90;3.70;100969.00;;;;5007202;27;93053;-76
2022/01/29 08:30:30;;;;;;;6.40;4.70;;;3.90;99.90;3.70;100964.00;;;;5000968;27;107396;-76
2022/01/29 08:32:56;;;;;;;10.67;5.30;;;3.90;99.90;3.70;100955.00;;;;4978952;27;106156;-71
2022/01/29 08:35:21;;;;;;;6.13;4.23;;;4.40;99.90;3.70;100963.00;;;;4968122;27;101167;-73
2022/01/29 08:37:47;;;;;;;9.30;5.77;;;3.90;99.90;3.70;100928.00;;;;5006882;27;109206;-73
2022/01/29 08:40:13;;;;;;;6.67;4.67;;;3.90;99.90;3.70;100926.00;;;;4998770;27;93738;-73
2022/01/29 08:42:39;;;;;;;10.13;4.87;;;4.00;99.90;3.70;100927.00;;;;5006571;27;92795;-72
2022/01/29 08:45:08;;;;;;;8.90;5.50;;;3.80;99.90;3.70;100917.00;;;;4988182;27;108100;-71
2022/01/29 08:47:34;;;;;;;6.53;4.37;;;3.90;99.90;3.80;100930.00;;;;4990166;27;93647;-74
2022/01/29 08:50:03;;;;;;;9.63;5.10;;;3.90;99.90;3.80;100924.00;;;;4988538;27;109987;-73
2022/01/29 08:52:29;;;;;;;8.17;4.83;;;5.00;99.90;3.80;100922.00;;;;5006606;27;94053;-71
2022/01/29 08:54:55;;;;;;;9.33;4.80;;;4.00;99.90;3.80;100927.00;;;;5006434;27;93825;-71
2022/01/29 08:57:22;;;;;;;11.77;5.27;;;4.00;99.90;3.80;100932.00;;;;5007404;27;92834;-72
2022/01/29 08:59:48;;;;;;;8.93;5.33;;;4.00;99.90;3.80;100915.00;;;;5007055;27;108796;-71
2022/01/29 09:02:14;;;;;;;8.83;4.97;;;4.00;99.90;3.80;100913.00;;;;5005771;27;122573;-70
2022/01/29 09:04:39;;;;;;;11.50;5.63;;;4.00;99.90;3.90;100900.00;;;;5006787;27;110611;-70
2022/01/29 09:07:05;;;;;;;8.17;5.53;;;4.10;99.90;3.90;100896.00;;;;4989003;27;92990;-70
2022/01/29 09:09:31;;;;;;;8.13;5.53;;;4.00;99.90;3.90;100892.00;;;;5006291;27;122536;-70
2022/01/29 09:11:57;;;;;;;11.77;5.83;;;4.10;99.90;3.90;100887.00;;;;5009828;27;122954;-70
2022/01/29 09:14:23;;;;;;;7.07;4.23;;;4.40;99.90;3.90;100893.00;;;;5004542;27;94337;-71
2022/01/29 09:16:49;;;;;;;9.90;4.77;;;4.10;99.90;3.90;100879.00;;;;4992497;27;93249;-69
2022/01/29 09:19:15;;;;;;;7.97;4.37;;;4.00;99.90;4.00;100880.00;;;;5008627;27;123505;-70
2022/01/29 09:21:40;;;;;;;7.87;5.17;;;4.20;99.90;4.00;100890.00;;;;4999981;27;102393;-70
2022/01/29 09:24:06;;;;;;;8.70;5.70;;;4.20;99.90;4.00;100869.00;;;;5004561;27;110315;-71
2022/01/29 09:26:32;;;;;;;8.87;5.17;;;4.20;99.90;4.00;100863.00;;;;5002793;27;92975;-70
2022/01/29 09:28:57;;;;;;;10.70;5.30;;;4.20;99.90;4.00;100862.00;;;;5005652;27;120783;-70
2022/01/29 09:31:23;;;;;;;7.77;4.30;;;4.20;99.90;4.00;100853.00;;;;4987100;27;122828;-72
2022/01/29 09:33:49;;;;;;;5.33;4.17;;;4.20;99.90;4.00;100861.00;;;;5008526;27;93884;-70
2022/01/29 09:36:15;;;;;;;6.93;4.23;;;4.30;99.90;4.10;100860.00;;;;5010408;27;108702;-71
2022/01/29 09:38:41;;;;;;;7.60;5.27;;;4.30;99.90;4.10;100849.00;;;;4991228;27;122398;-71
2022/01/29 09:41:09;;;;;;;8.47;4.43;;;4.20;99.90;4.10;100844.00;;;;5009224;27;114501;-71
2022/01/29 09:43:35;;;;;;;6.00;3.90;;;4.30;99.90;4.10;100853.00;;;;4991049;27;93965;-72
2022/01/29 09:46:01;;;;;;;8.63;4.57;;;4.30;99.90;4.10;100858.00;;;;5010861;27;92722;-70
2022/01/29 09:48:29;;;;;;;8.23;5.00;;;4.40;99.90;4.20;100854.00;;;;4991140;27;93178;-72
2022/01/29 09:50:58;;;;;;;7.80;4.30;;;4.30;99.90;4.20;100847.00;;;;5010272;27;92903;-70
2022/01/29 09:53:24;;;;;;;7.67;4.63;;;4.40;99.90;4.20;100829.00;;;;5009971;27;92962;-72
2022/01/29 09:55:50;;;;;;;7.30;4.67;;;4.30;99.90;4.20;100843.00;;;;4991158;27;92799;-72
2022/01/29 09:58:15;;;;;;;6.77;4.60;;;4.30;99.90;4.20;100831.00;;;;4989810;27;120883;-71
2022/01/29 10:00:42;;;;;;;7.80;4.40;;;4.40;99.90;4.20;100832.00;;;;5007843;27;102671;-72
2022/01/29 10:03:10;;;;;;;7.87;3.90;;;4.40;99.90;4.20;100837.00;;;;5009973;27;93025;-74
2022/01/29 10:05:43;;;;;;;7.20;4.40;;;4.40;99.90;4.20;100825.00;;;;5009746;27;93070;-73
2022/01/29 10:08:10;;;;;;;9.33;4.83;;;4.40;99.90;4.20;100818.00;;;;4990599;27;94143;-76
2022/01/29 10:10:42;;;;;;;6.37;4.13;;;4.40;99.90;4.20;100803.00;;;;4991312;27;94432;-75
2022/01/29 10:13:31;;;;;;;6.93;4.50;;;4.70;99.90;4.20;100799.00;;;;5009314;27;92754;-72
2022/01/29 10:16:25;;;;;;;6.57;4.57;;;4.40;99.90;4.30;100794.00;;;;4988759;27;93791;-73
2022/01/29 10:19:11;;;;;;;8.93;4.47;;;4.50;99.90;4.30;100789.00;;;;4959997;27;94913;-72
2022/01/29 10:21:43;;;;;;;8.73;4.70;;;4.50;99.90;4.30;100788.00;;;;4989308;27;107464;-73
2022/01/29 10:24:15;;;;;;;7.57;4.57;;;4.50;99.90;4.30;100785.00;;;;4991233;27;92861;-72
2022/01/29 10:26:45;;;;;;;7.00;4.47;;;4.50;99.90;4.30;100780.00;;;;4982993;27;92164;-78
2022/01/29 10:29:26;;;;;;;11.13;4.90;;;4.50;99.90;4.30;100781.00;;;;4982536;28;104388;-75
2022/01/29 10:31:54;;;;;;;5.87;3.80;;;4.60;99.90;4.40;100777.00;;;;4996690;27;92989;-72
2022/01/29 10:34:32;;;;;;;7.30;4.13;;;4.60;99.90;4.40;100769.00;;;;4973710;27;94039;-73
2022/01/29 10:37:25;;;;;;;4.67;3.27;;;4.60;99.90;4.40;100744.00;;;;4991569;27;93210;-71
2022/01/29 10:39:57;;;;;;;4.40;3.60;;;4.60;99.90;4.40;100722.00;;;;4990375;27;93192;-74
2022/01/29 10:42:38;;;;;;;6.37;4.37;;;4.50;99.90;4.40;100711.00;;;;4990170;27;92937;-74
2022/01/29 10:45:07;;;;;;;5.53;3.57;;;4.60;99.90;4.50;100721.00;;;;4991168;27;92899;-72
2022/01/29 10:47:55;;;;;;;7.70;4.10;;;4.70;99.90;4.50;100710.00;;;;4997779;27;92644;-75
2022/01/29 10:50:21;;;;;;;6.97;3.50;;;4.70;99.90;4.50;100716.00;;;;5005045;27;93505;-72
2022/01/29 10:52:48;;;;;;;4.13;3.67;;;4.70;99.90;4.60;100707.00;;;;5001401;27;104155;-74
2022/01/29 10:55:13;;;;;;;4.37;3.13;;;4.70;99.90;4.60;100699.00;;;;4985021;27;93428;-75
2022/01/29 10:57:42;;;;;;;6.27;3.60;;;4.80;99.90;4.60;100694.00;;;;5008863;27;108152;-75
2022/01/29 11:00:16;;;;;;;6.00;3.53;;;4.80;99.90;4.70;100701.00;;;;5003875;27;106309;-75
2022/01/29 11:02:43;;;;;;;5.20;3.10;;;4.90;99.90;4.70;100689.00;;;;4994130;27;93912;-76
2022/01/29 11:05:08;;;;;;;4.50;3.50;;;4.90;99.90;4.80;100664.00;;;;5009038;27;94906;-76
2022/01/29 11:07:36;;;;;;;4.30;3.23;;;5.00;99.90;4.90;100680.00;;;;5009327;27;92986;-77
2022/01/29 11:10:08;;;;;;;6.33;3.23;;;4.90;99.90;4.90;100665.00;;;;5002180;27;93208;-78
2022/01/29 11:12:36;;;;;;;5.13;3.50;;;5.10;99.90;4.90;100673.00;;;;4956834;27;94774;-76